ARG1712 SABE-SAAR
Flight info
| Callsign | ARG1712 |
|---|---|
| Flight time | N/A |
| Altitude | 24000 |
| Route | ATOVO4B ATOVO W5 ESKON |
| Aircraft | B738/M-SDE2E3FGHIRWXY/LB1 |
Departure
| Time | 2026-05-01 15:28 |
|---|---|
| Airport | Aeroparque Jorge Newbery (SABE) |
Arrival
| Time | N/A |
|---|---|
| Airport | Rosario Islas Malvinas International Airport (SAAR) |
| Time | Latitude | Longitude | Altitude | Speed | Heading |
|---|---|---|---|---|---|
| 2026-05-01 15:11 | -34.56091 | -58.40836 | 26 ft | 0 kts | 38° |
| 2026-05-01 15:19 | -34.56103 | -58.40851 | 26 ft | 2 kts | 62° |
| 2026-05-01 15:19 | -34.56109 | -58.40886 | 26 ft | 2 kts | 97° |
| 2026-05-01 15:19 | -34.56105 | -58.40904 | 26 ft | 2 kts | 116° |
| 2026-05-01 15:20 | -34.56090 | -58.40926 | 26 ft | 1 kts | 135° |
| 2026-05-01 15:20 | -34.56090 | -58.40927 | 26 ft | 0 kts | 135° |
| 2026-05-01 15:22 | -34.56094 | -58.40922 | 26 ft | 2 kts | 136° |
| 2026-05-01 15:23 | -34.56097 | -58.40919 | 26 ft | 3 kts | 137° |
| 2026-05-01 15:23 | -34.56117 | -58.40897 | 26 ft | 7 kts | 137° |
| 2026-05-01 15:23 | -34.56161 | -58.40836 | 26 ft | 12 kts | 126° |
| 2026-05-01 15:23 | -34.56217 | -58.40736 | 26 ft | 15 kts | 123° |
| 2026-05-01 15:24 | -34.56275 | -58.40631 | 26 ft | 12 kts | 124° |
| 2026-05-01 15:24 | -34.56334 | -58.40547 | 26 ft | 12 kts | 136° |
| 2026-05-01 15:24 | -34.56379 | -58.40498 | 26 ft | 6 kts | 139° |
| 2026-05-01 15:24 | -34.56399 | -58.40478 | 26 ft | 3 kts | 141° |
| 2026-05-01 15:25 | -34.56412 | -58.40465 | 26 ft | 1 kts | 140° |
| 2026-05-01 15:25 | -34.56428 | -58.40447 | 26 ft | 4 kts | 134° |
| 2026-05-01 15:25 | -34.56455 | -58.40415 | 26 ft | 5 kts | 135° |
| 2026-05-01 15:25 | -34.56479 | -58.40389 | 26 ft | 4 kts | 149° |
| 2026-05-01 15:26 | -34.56502 | -58.40383 | 26 ft | 2 kts | 181° |
| 2026-05-01 15:26 | -34.56529 | -58.40390 | 26 ft | 4 kts | 205° |
| 2026-05-01 15:26 | -34.56548 | -58.40418 | 26 ft | 4 kts | 251° |
| 2026-05-01 15:26 | -34.56545 | -58.40449 | 26 ft | 2 kts | 297° |
| 2026-05-01 15:27 | -34.56544 | -58.40451 | 26 ft | 0 kts | 297° |
| 2026-05-01 15:27 | -34.56539 | -58.40463 | 26 ft | 5 kts | 298° |
| 2026-05-01 15:27 | -34.56424 | -58.40677 | 26 ft | 65 kts | 303° |
| 2026-05-01 15:28 | -34.55455 | -58.42396 | 200 ft | 160 kts | 307° |
| 2026-05-01 15:28 | -34.54675 | -58.43409 | 684 ft | 171 kts | 312° |
| 2026-05-01 15:28 | -34.53909 | -58.44512 | 1259 ft | 175 kts | 306° |
| 2026-05-01 15:29 | -34.51648 | -58.45200 | 2202 ft | 196 kts | 26° |
| 2026-05-01 15:29 | -34.50502 | -58.44300 | 2825 ft | 197 kts | 32° |
| 2026-05-01 15:29 | -34.48250 | -58.42410 | 4073 ft | 199 kts | 31° |
| 2026-05-01 15:30 | -34.46309 | -58.40704 | 4803 ft | 221 kts | 31° |
| 2026-05-01 15:31 | -34.39545 | -58.39221 | 6322 ft | 268 kts | 341° |
| 2026-05-01 15:31 | -34.35759 | -58.39904 | 7555 ft | 283 kts | 348° |
| 2026-05-01 15:32 | -34.31783 | -58.40268 | 8806 ft | 288 kts | 340° |
| 2026-05-01 15:32 | -34.28538 | -58.42701 | 10089 ft | 276 kts | 312° |
| 2026-05-01 15:33 | -34.23611 | -58.47293 | 11064 ft | 323 kts | 320° |
| 2026-05-01 15:34 | -34.17683 | -58.52102 | 12349 ft | 354 kts | 320° |